« Back
NWS Peachtree City, Ga » Text Product » CSG Terminal Aerodrome Forecast

Printer-friendly Version
Current Version              Previous Versions:   1  2  3  4  5  6  7  8  9  

Terminal Aerodrome Forecast

FTUS42 KFFC 300532
KCSG 300532Z 3006/0106 00000KT P6SM BKN120
     FM300900 00000KT P6SM BKN040
     FM301800 21005KT P6SM BKN090
     FM010000 00000KT P6SM BKN070=

USA.gov is the U.S. government's official web portal to all federal, state and local government web resources and services.